sensor_id;sensor_type;location;lat;lon;timestamp;P1;durP1;ratioP1;P2;durP2;ratioP2
47481;SDS011;33219;47.410;9.730;2022-11-18T00:01:16;2.62;;;1.50;;
47481;SDS011;33219;47.410;9.730;2022-11-18T00:03:47;2.50;;;1.40;;
47481;SDS011;33219;47.410;9.730;2022-11-18T00:06:19;2.90;;;1.60;;
47481;SDS011;33219;47.410;9.730;2022-11-18T00:08:49;2.20;;;1.72;;
47481;SDS011;33219;47.410;9.730;2022-11-18T00:11:18;3.20;;;1.90;;
47481;SDS011;33219;47.410;9.730;2022-11-18T00:14:06;2.80;;;2.10;;
47481;SDS011;33219;47.410;9.730;2022-11-18T00:16:53;4.53;;;2.10;;
47481;SDS011;33219;47.410;9.730;2022-11-18T00:19:25;5.22;;;2.22;;
47481;SDS011;33219;47.410;9.730;2022-11-18T00:21:55;3.67;;;2.45;;
47481;SDS011;33219;47.410;9.730;2022-11-18T00:24:23;4.25;;;2.58;;
47481;SDS011;33219;47.410;9.730;2022-11-18T00:26:51;4.20;;;2.67;;
47481;SDS011;33219;47.410;9.730;2022-11-18T00:29:20;4.60;;;2.85;;
47481;SDS011;33219;47.410;9.730;2022-11-18T00:31:48;5.47;;;3.27;;
47481;SDS011;33219;47.410;9.730;2022-11-18T00:34:16;4.15;;;2.90;;
47481;SDS011;33219;47.410;9.730;2022-11-18T00:36:44;5.00;;;3.80;;
47481;SDS011;33219;47.410;9.730;2022-11-18T00:39:13;8.38;;;4.25;;
47481;SDS011;33219;47.410;9.730;2022-11-18T00:41:43;6.95;;;4.00;;
47481;SDS011;33219;47.410;9.730;2022-11-18T00:44:28;4.25;;;2.58;;
47481;SDS011;33219;47.410;9.730;2022-11-18T00:46:56;4.35;;;3.02;;
47481;SDS011;33219;47.410;9.730;2022-11-18T00:49:24;3.25;;;2.30;;
47481;SDS011;33219;47.410;9.730;2022-11-18T00:51:51;2.98;;;1.90;;
47481;SDS011;33219;47.410;9.730;2022-11-18T00:54:19;3.22;;;2.12;;
47481;SDS011;33219;47.410;9.730;2022-11-18T00:56:47;3.35;;;2.00;;
47481;SDS011;33219;47.410;9.730;2022-11-18T00:59:14;1.77;;;0.90;;
47481;SDS011;33219;47.410;9.730;2022-11-18T01:01:42;3.58;;;1.98;;
47481;SDS011;33219;47.410;9.730;2022-11-18T01:04:09;4.17;;;3.00;;
47481;SDS011;33219;47.410;9.730;2022-11-18T01:06:37;5.75;;;3.92;;
47481;SDS011;33219;47.410;9.730;2022-11-18T01:09:04;9.15;;;5.45;;
47481;SDS011;33219;47.410;9.730;2022-11-18T01:11:32;10.43;;;6.42;;
47481;SDS011;33219;47.410;9.730;2022-11-18T01:14:17;10.53;;;6.55;;
47481;SDS011;33219;47.410;9.730;2022-11-18T01:16:45;9.35;;;6.60;;
47481;SDS011;33219;47.410;9.730;2022-11-18T01:19:16;11.40;;;7.08;;
47481;SDS011;33219;47.410;9.730;2022-11-18T01:21:45;10.28;;;7.33;;
47481;SDS011;33219;47.410;9.730;2022-11-18T01:24:13;13.18;;;7.87;;
47481;SDS011;33219;47.410;9.730;2022-11-18T01:26:41;11.48;;;7.67;;
47481;SDS011;33219;47.410;9.730;2022-11-18T01:29:08;12.73;;;7.78;;
47481;SDS011;33219;47.410;9.730;2022-11-18T01:31:36;8.95;;;6.90;;
47481;SDS011;33219;47.410;9.730;2022-11-18T01:34:04;11.83;;;7.50;;
47481;SDS011;33219;47.410;9.730;2022-11-18T01:36:32;10.90;;;7.35;;
47481;SDS011;33219;47.410;9.730;2022-11-18T01:38:59;9.25;;;6.60;;
47481;SDS011;33219;47.410;9.730;2022-11-18T01:41:27;9.10;;;6.30;;
47481;SDS011;33219;47.410;9.730;2022-11-18T01:43:58;9.28;;;7.25;;
47481;SDS011;33219;47.410;9.730;2022-11-18T01:46:28;13.32;;;7.80;;
47481;SDS011;33219;47.410;9.730;2022-11-18T01:48:58;11.75;;;8.28;;
47481;SDS011;33219;47.410;9.730;2022-11-18T01:51:36;10.55;;;7.15;;
47481;SDS011;33219;47.410;9.730;2022-11-18T01:54:15;11.38;;;7.25;;
47481;SDS011;33219;47.410;9.730;2022-11-18T01:56:42;13.05;;;8.00;;
47481;SDS011;33219;47.410;9.730;2022-11-18T01:59:12;11.93;;;7.30;;
47481;SDS011;33219;47.410;9.730;2022-11-18T02:01:42;12.98;;;8.00;;
47481;SDS011;33219;47.410;9.730;2022-11-18T02:04:10;11.35;;;7.65;;
47481;SDS011;33219;47.410;9.730;2022-11-18T02:06:40;12.45;;;8.45;;
47481;SDS011;33219;47.410;9.730;2022-11-18T02:09:10;11.88;;;7.35;;
47481;SDS011;33219;47.410;9.730;2022-11-18T02:11:40;9.23;;;7.37;;
47481;SDS011;33219;47.410;9.730;2022-11-18T02:14:24;10.95;;;6.72;;
47481;SDS011;33219;47.410;9.730;2022-11-18T02:25:46;9.33;;;6.40;;
47481;SDS011;33219;47.410;9.730;2022-11-18T02:31:37;4.03;;;2.77;;
47481;SDS011;33219;47.410;9.730;2022-11-18T02:33:53;8.15;;;1.80;;
47481;SDS011;33219;47.410;9.730;2022-11-18T02:36:26;1.52;;;1.07;;
47481;SDS011;33219;47.410;9.730;2022-11-18T02:38:55;2.80;;;0.90;;
47481;SDS011;33219;47.410;9.730;2022-11-18T02:41:29;1.30;;;0.60;;
47481;SDS011;33219;47.410;9.730;2022-11-18T02:43:55;1.12;;;0.60;;
47481;SDS011;33219;47.410;9.730;2022-11-18T02:46:28;1.27;;;0.72;;
47481;SDS011;33219;47.410;9.730;2022-11-18T02:49:01;0.40;;;0.28;;
47481;SDS011;33219;47.410;9.730;2022-11-18T02:51:30;0.25;;;0.25;;
47481;SDS011;33219;47.410;9.730;2022-11-18T02:54:00;0.95;;;0.33;;
47481;SDS011;33219;47.410;9.730;2022-11-18T02:56:30;1.02;;;0.40;;
47481;SDS011;33219;47.410;9.730;2022-11-18T02:59:01;0.50;;;0.30;;
47481;SDS011;33219;47.410;9.730;2022-11-18T03:01:30;0.20;;;0.20;;
47481;SDS011;33219;47.410;9.730;2022-11-18T03:04:00;0.10;;;0.10;;
47481;SDS011;33219;47.410;9.730;2022-11-18T03:06:29;0.47;;;0.28;;
47481;SDS011;33219;47.410;9.730;2022-11-18T03:09:07;0.57;;;0.30;;
47481;SDS011;33219;47.410;9.730;2022-11-18T03:17:08;0.20;;;0.20;;
47481;SDS011;33219;47.410;9.730;2022-11-18T03:22:20;0.40;;;0.30;;
47481;SDS011;33219;47.410;9.730;2022-11-18T03:24:58;0.23;;;0.20;;
47481;SDS011;33219;47.410;9.730;2022-11-18T03:27:49;0.50;;;0.30;;
47481;SDS011;33219;47.410;9.730;2022-11-18T03:30:03;1.22;;;0.70;;
47481;SDS011;33219;47.410;9.730;2022-11-18T03:32:32;1.20;;;0.57;;
47481;SDS011;33219;47.410;9.730;2022-11-18T03:35:04;1.62;;;0.62;;
47481;SDS011;33219;47.410;9.730;2022-11-18T03:37:33;1.07;;;0.68;;
47481;SDS011;33219;47.410;9.730;2022-11-18T03:40:07;0.70;;;0.60;;
47481;SDS011;33219;47.410;9.730;2022-11-18T03:42:48;0.65;;;0.50;;
47481;SDS011;33219;47.410;9.730;2022-11-18T03:45:22;2.52;;;0.68;;
47481;SDS011;33219;47.410;9.730;2022-11-18T03:47:53;1.10;;;0.60;;
47481;SDS011;33219;47.410;9.730;2022-11-18T03:50:26;1.32;;;0.80;;
47481;SDS011;33219;47.410;9.730;2022-11-18T03:52:59;1.65;;;0.90;;
47481;SDS011;33219;47.410;9.730;2022-11-18T03:55:30;1.52;;;0.80;;
47481;SDS011;33219;47.410;9.730;2022-11-18T04:00:46;0.70;;;0.55;;
47481;SDS011;33219;47.410;9.730;2022-11-18T04:03:15;0.75;;;0.50;;
47481;SDS011;33219;47.410;9.730;2022-11-18T04:05:42;1.45;;;0.65;;
47481;SDS011;33219;47.410;9.730;2022-11-18T04:08:22;1.07;;;0.60;;
47481;SDS011;33219;47.410;9.730;2022-11-18T04:10:58;1.80;;;0.62;;
47481;SDS011;33219;47.410;9.730;2022-11-18T04:13:28;1.10;;;0.70;;
47481;SDS011;33219;47.410;9.730;2022-11-18T04:15:57;0.17;;;0.17;;
47481;SDS011;33219;47.410;9.730;2022-11-18T04:18:25;0.45;;;0.25;;
47481;SDS011;33219;47.410;9.730;2022-11-18T04:20:53;0.98;;;0.40;;
47481;SDS011;33219;47.410;9.730;2022-11-18T04:23:21;0.53;;;0.30;;
47481;SDS011;33219;47.410;9.730;2022-11-18T04:25:48;0.30;;;0.30;;
47481;SDS011;33219;47.410;9.730;2022-11-18T04:28:16;1.17;;;0.45;;
47481;SDS011;33219;47.410;9.730;2022-11-18T04:30:43;1.55;;;0.80;;
47481;SDS011;33219;47.410;9.730;2022-11-18T04:33:11;0.98;;;0.70;;
47481;SDS011;33219;47.410;9.730;2022-11-18T04:35:38;1.00;;;0.50;;
47481;SDS011;33219;47.410;9.730;2022-11-18T04:38:06;0.47;;;0.47;;
47481;SDS011;33219;47.410;9.730;2022-11-18T04:40:33;0.53;;;0.50;;
47481;SDS011;33219;47.410;9.730;2022-11-18T04:43:01;0.30;;;0.30;;
47481;SDS011;33219;47.410;9.730;2022-11-18T04:45:28;1.02;;;0.50;;
47481;SDS011;33219;47.410;9.730;2022-11-18T04:47:56;0.85;;;0.60;;
47481;SDS011;33219;47.410;9.730;2022-11-18T04:50:23;0.93;;;0.45;;
47481;SDS011;33219;47.410;9.730;2022-11-18T04:52:51;2.47;;;1.22;;
47481;SDS011;33219;47.410;9.730;2022-11-18T04:55:19;1.42;;;1.00;;
47481;SDS011;33219;47.410;9.730;2022-11-18T04:57:46;1.85;;;0.90;;
47481;SDS011;33219;47.410;9.730;2022-11-18T05:00:14;1.90;;;1.20;;
47481;SDS011;33219;47.410;9.730;2022-11-18T05:02:42;1.32;;;0.93;;
47481;SDS011;33219;47.410;9.730;2022-11-18T05:05:09;3.02;;;1.12;;
47481;SDS011;33219;47.410;9.730;2022-11-18T05:07:37;1.17;;;0.80;;
47481;SDS011;33219;47.410;9.730;2022-11-18T05:10:05;0.93;;;0.72;;
47481;SDS011;33219;47.410;9.730;2022-11-18T05:12:34;1.02;;;0.60;;
47481;SDS011;33219;47.410;9.730;2022-11-18T05:15:17;0.82;;;0.47;;
47481;SDS011;33219;47.410;9.730;2022-11-18T05:17:47;1.40;;;0.60;;
47481;SDS011;33219;47.410;9.730;2022-11-18T05:20:15;0.95;;;0.70;;
47481;SDS011;33219;47.410;9.730;2022-11-18T05:22:42;0.55;;;0.42;;
47481;SDS011;33219;47.410;9.730;2022-11-18T05:25:10;0.78;;;0.68;;
47481;SDS011;33219;47.410;9.730;2022-11-18T05:27:38;1.62;;;0.90;;
47481;SDS011;33219;47.410;9.730;2022-11-18T05:30:05;0.90;;;0.70;;
47481;SDS011;33219;47.410;9.730;2022-11-18T05:32:33;0.93;;;0.65;;
47481;SDS011;33219;47.410;9.730;2022-11-18T05:35:01;3.67;;;1.80;;
47481;SDS011;33219;47.410;9.730;2022-11-18T05:37:30;3.15;;;1.70;;
47481;SDS011;33219;47.410;9.730;2022-11-18T05:39:58;4.47;;;2.15;;
47481;SDS011;33219;47.410;9.730;2022-11-18T05:42:26;4.60;;;1.90;;
47481;SDS011;33219;47.410;9.730;2022-11-18T05:45:11;1.32;;;0.65;;
47481;SDS011;33219;47.410;9.730;2022-11-18T05:47:40;0.98;;;0.45;;
47481;SDS011;33219;47.410;9.730;2022-11-18T05:50:27;0.85;;;0.60;;
47481;SDS011;33219;47.410;9.730;2022-11-18T05:52:56;1.12;;;0.90;;
47481;SDS011;33219;47.410;9.730;2022-11-18T05:55:24;2.12;;;1.15;;
47481;SDS011;33219;47.410;9.730;2022-11-18T05:57:57;1.30;;;0.88;;
47481;SDS011;33219;47.410;9.730;2022-11-18T06:00:24;1.45;;;0.70;;
47481;SDS011;33219;47.410;9.730;2022-11-18T06:02:52;1.22;;;0.75;;
47481;SDS011;33219;47.410;9.730;2022-11-18T06:05:22;2.80;;;1.37;;
47481;SDS011;33219;47.410;9.730;2022-11-18T06:07:51;1.87;;;1.10;;
47481;SDS011;33219;47.410;9.730;2022-11-18T06:10:27;3.72;;;1.32;;
47481;SDS011;33219;47.410;9.730;2022-11-18T06:12:53;1.87;;;1.40;;
47481;SDS011;33219;47.410;9.730;2022-11-18T06:15:24;3.37;;;1.52;;
47481;SDS011;33219;47.410;9.730;2022-11-18T06:18:10;1.72;;;1.15;;
47481;SDS011;33219;47.410;9.730;2022-11-18T06:20:36;2.87;;;1.20;;
47481;SDS011;33219;47.410;9.730;2022-11-18T06:23:05;3.02;;;1.40;;
47481;SDS011;33219;47.410;9.730;2022-11-18T06:25:35;2.90;;;1.12;;
47481;SDS011;33219;47.410;9.730;2022-11-18T06:28:05;2.62;;;1.05;;
47481;SDS011;33219;47.410;9.730;2022-11-18T06:30:39;1.80;;;0.80;;
47481;SDS011;33219;47.410;9.730;2022-11-18T06:33:07;0.93;;;0.75;;
47481;SDS011;33219;47.410;9.730;2022-11-18T06:35:35;1.35;;;0.72;;
47481;SDS011;33219;47.410;9.730;2022-11-18T06:40:43;1.30;;;0.93;;
47481;SDS011;33219;47.410;9.730;2022-11-18T06:49:52;1.90;;;0.93;;
47481;SDS011;33219;47.410;9.730;2022-11-18T06:52:17;1.30;;;0.90;;
47481;SDS011;33219;47.410;9.730;2022-11-18T06:54:43;1.77;;;1.00;;
47481;SDS011;33219;47.410;9.730;2022-11-18T07:00:27;2.10;;;1.10;;
47481;SDS011;33219;47.410;9.730;2022-11-18T07:09:04;3.90;;;2.02;;
47481;SDS011;33219;47.410;9.730;2022-11-18T07:14:50;2.85;;;2.05;;
47481;SDS011;33219;47.410;9.730;2022-11-18T07:20:11;3.02;;;2.00;;
47481;SDS011;33219;47.410;9.730;2022-11-18T07:22:49;3.80;;;2.15;;
47481;SDS011;33219;47.410;9.730;2022-11-18T07:28:35;4.65;;;3.00;;
47481;SDS011;33219;47.410;9.730;2022-11-18T07:40:47;1.90;;;0.88;;
47481;SDS011;33219;47.410;9.730;2022-11-18T07:43:38;1.27;;;0.70;;
47481;SDS011;33219;47.410;9.730;2022-11-18T07:52:25;0.82;;;0.62;;
47481;SDS011;33219;47.410;9.730;2022-11-18T07:54:59;1.85;;;1.15;;
47481;SDS011;33219;47.410;9.730;2022-11-18T07:57:34;2.27;;;1.30;;
47481;SDS011;33219;47.410;9.730;2022-11-18T08:00:09;4.10;;;2.15;;
47481;SDS011;33219;47.410;9.730;2022-11-18T08:02:43;3.77;;;2.35;;
47481;SDS011;33219;47.410;9.730;2022-11-18T08:05:17;4.95;;;2.70;;
47481;SDS011;33219;47.410;9.730;2022-11-18T08:07:51;2.87;;;1.95;;
47481;SDS011;33219;47.410;9.730;2022-11-18T08:10:26;4.08;;;2.27;;
47481;SDS011;33219;47.410;9.730;2022-11-18T08:13:06;3.42;;;1.87;;
47481;SDS011;33219;47.410;9.730;2022-11-18T08:16:16;4.33;;;1.62;;
47481;SDS011;33219;47.410;9.730;2022-11-18T08:18:59;2.33;;;0.90;;
47481;SDS011;33219;47.410;9.730;2022-11-18T08:21:35;1.80;;;1.30;;
47481;SDS011;33219;47.410;9.730;2022-11-18T08:24:11;3.65;;;1.25;;
47481;SDS011;33219;47.410;9.730;2022-11-18T08:26:48;2.47;;;1.40;;
47481;SDS011;33219;47.410;9.730;2022-11-18T08:35:32;2.52;;;1.57;;
47481;SDS011;33219;47.410;9.730;2022-11-18T08:44:15;2.02;;;1.27;;
47481;SDS011;33219;47.410;9.730;2022-11-18T08:50:31;3.02;;;1.17;;
47481;SDS011;33219;47.410;9.730;2022-11-18T08:53:40;1.95;;;1.30;;
47481;SDS011;33219;47.410;9.730;2022-11-18T08:59:29;2.62;;;1.90;;
47481;SDS011;33219;47.410;9.730;2022-11-18T09:11:09;4.60;;;1.52;;
47481;SDS011;33219;47.410;9.730;2022-11-18T09:13:59;2.87;;;0.88;;
47481;SDS011;33219;47.410;9.730;2022-11-18T09:16:49;1.65;;;0.98;;
47481;SDS011;33219;47.410;9.730;2022-11-18T09:19:44;1.75;;;1.15;;
47481;SDS011;33219;47.410;9.730;2022-11-18T09:28:21;2.65;;;1.45;;
47481;SDS011;33219;47.410;9.730;2022-11-18T09:31:08;2.87;;;1.80;;
47481;SDS011;33219;47.410;9.730;2022-11-18T09:48:29;3.02;;;1.72;;
47481;SDS011;33219;47.410;9.730;2022-11-18T09:57:13;3.77;;;2.40;;
47481;SDS011;33219;47.410;9.730;2022-11-18T10:00:14;4.17;;;2.55;;
47481;SDS011;33219;47.410;9.730;2022-11-18T10:02:50;4.40;;;2.75;;
47481;SDS011;33219;47.410;9.730;2022-11-18T10:05:27;5.87;;;2.75;;
47481;SDS011;33219;47.410;9.730;2022-11-18T10:13:47;1.98;;;1.57;;
47481;SDS011;33219;47.410;9.730;2022-11-18T10:16:24;3.50;;;1.95;;
47481;SDS011;33219;47.410;9.730;2022-11-18T10:24:21;2.17;;;1.47;;
47481;SDS011;33219;47.410;9.730;2022-11-18T10:26:57;3.75;;;1.42;;
47481;SDS011;33219;47.410;9.730;2022-11-18T10:29:32;5.22;;;3.30;;
47481;SDS011;33219;47.410;9.730;2022-11-18T10:32:03;5.90;;;3.37;;
47481;SDS011;33219;47.410;9.730;2022-11-18T10:34:44;3.70;;;2.10;;
47481;SDS011;33219;47.410;9.730;2022-11-18T10:40:56;3.00;;;2.30;;
47481;SDS011;33219;47.410;9.730;2022-11-18T10:46:35;2.05;;;1.50;;
47481;SDS011;33219;47.410;9.730;2022-11-18T10:49:12;1.32;;;0.98;;
47481;SDS011;33219;47.410;9.730;2022-11-18T10:51:44;1.67;;;0.88;;
47481;SDS011;33219;47.410;9.730;2022-11-18T10:54:23;2.27;;;1.30;;
47481;SDS011;33219;47.410;9.730;2022-11-18T10:59:55;2.30;;;1.15;;
47481;SDS011;33219;47.410;9.730;2022-11-18T11:02:38;2.77;;;1.57;;
47481;SDS011;33219;47.410;9.730;2022-11-18T11:05:22;2.83;;;1.70;;
47481;SDS011;33219;47.410;9.730;2022-11-18T11:08:01;2.52;;;1.30;;
47481;SDS011;33219;47.410;9.730;2022-11-18T11:10:38;2.42;;;1.40;;
47481;SDS011;33219;47.410;9.730;2022-11-18T11:13:14;3.00;;;1.07;;
47481;SDS011;33219;47.410;9.730;2022-11-18T11:15:48;0.93;;;0.80;;
47481;SDS011;33219;47.410;9.730;2022-11-18T11:18:34;1.67;;;1.07;;
47481;SDS011;33219;47.410;9.730;2022-11-18T11:21:18;1.72;;;1.20;;
47481;SDS011;33219;47.410;9.730;2022-11-18T11:23:47;4.78;;;2.37;;
47481;SDS011;33219;47.410;9.730;2022-11-18T11:26:29;3.00;;;1.70;;
47481;SDS011;33219;47.410;9.730;2022-11-18T11:38:05;1.20;;;1.10;;
47481;SDS011;33219;47.410;9.730;2022-11-18T11:40:51;1.12;;;1.02;;
47481;SDS011;33219;47.410;9.730;2022-11-18T11:43:26;1.75;;;1.10;;
47481;SDS011;33219;47.410;9.730;2022-11-18T11:46:17;1.70;;;0.88;;
47481;SDS011;33219;47.410;9.730;2022-11-18T11:51:55;2.70;;;1.17;;
47481;SDS011;33219;47.410;9.730;2022-11-18T11:59:51;2.15;;;1.40;;
47481;SDS011;33219;47.410;9.730;2022-11-18T12:02:43;3.35;;;1.50;;
47481;SDS011;33219;47.410;9.730;2022-11-18T12:07:50;3.60;;;2.27;;
47481;SDS011;33219;47.410;9.730;2022-11-18T12:10:22;4.00;;;2.47;;
47481;SDS011;33219;47.410;9.730;2022-11-18T12:12:51;3.08;;;2.08;;
47481;SDS011;33219;47.410;9.730;2022-11-18T12:15:51;3.17;;;2.05;;
47481;SDS011;33219;47.410;9.730;2022-11-18T12:21:00;1.35;;;1.00;;
47481;SDS011;33219;47.410;9.730;2022-11-18T12:23:28;0.60;;;0.47;;
47481;SDS011;33219;47.410;9.730;2022-11-18T12:25:59;1.62;;;0.90;;
47481;SDS011;33219;47.410;9.730;2022-11-18T12:28:32;3.27;;;0.95;;
47481;SDS011;33219;47.410;9.730;2022-11-18T12:33:50;1.10;;;0.68;;
47481;SDS011;33219;47.410;9.730;2022-11-18T12:36:32;1.10;;;0.75;;
47481;SDS011;33219;47.410;9.730;2022-11-18T12:41:54;2.37;;;1.32;;
47481;SDS011;33219;47.410;9.730;2022-11-18T12:44:41;1.80;;;1.20;;
47481;SDS011;33219;47.410;9.730;2022-11-18T12:47:14;1.10;;;1.00;;
47481;SDS011;33219;47.410;9.730;2022-11-18T12:55:01;2.50;;;1.50;;
47481;SDS011;33219;47.410;9.730;2022-11-18T12:57:33;1.12;;;0.82;;
47481;SDS011;33219;47.410;9.730;2022-11-18T13:00:33;1.77;;;1.00;;
47481;SDS011;33219;47.410;9.730;2022-11-18T13:02:51;0.72;;;0.50;;
47481;SDS011;33219;47.410;9.730;2022-11-18T13:05:27;0.88;;;0.60;;
47481;SDS011;33219;47.410;9.730;2022-11-18T13:08:01;1.67;;;0.82;;
47481;SDS011;33219;47.410;9.730;2022-11-18T13:10:58;1.72;;;1.10;;
47481;SDS011;33219;47.410;9.730;2022-11-18T13:13:25;2.27;;;1.25;;
47481;SDS011;33219;47.410;9.730;2022-11-18T13:15:55;1.37;;;1.00;;
47481;SDS011;33219;47.410;9.730;2022-11-18T13:18:33;2.08;;;1.15;;
47481;SDS011;33219;47.410;9.730;2022-11-18T13:21:04;2.12;;;1.27;;
47481;SDS011;33219;47.410;9.730;2022-11-18T13:23:49;2.27;;;1.25;;
47481;SDS011;33219;47.410;9.730;2022-11-18T13:26:26;1.67;;;1.10;;
47481;SDS011;33219;47.410;9.730;2022-11-18T13:34:46;2.60;;;1.72;;
47481;SDS011;33219;47.410;9.730;2022-11-18T13:37:19;2.42;;;1.42;;
47481;SDS011;33219;47.410;9.730;2022-11-18T13:39:51;1.82;;;0.95;;
47481;SDS011;33219;47.410;9.730;2022-11-18T13:42:28;2.25;;;1.72;;
47481;SDS011;33219;47.410;9.730;2022-11-18T13:44:54;2.55;;;1.95;;
47481;SDS011;33219;47.410;9.730;2022-11-18T13:50:17;2.27;;;1.57;;
47481;SDS011;33219;47.410;9.730;2022-11-18T13:55:37;2.17;;;1.50;;
47481;SDS011;33219;47.410;9.730;2022-11-18T14:01:03;1.55;;;1.10;;
47481;SDS011;33219;47.410;9.730;2022-11-18T14:03:30;1.62;;;1.20;;
47481;SDS011;33219;47.410;9.730;2022-11-18T14:05:59;4.67;;;2.92;;
47481;SDS011;33219;47.410;9.730;2022-11-18T14:08:31;7.30;;;3.70;;
47481;SDS011;33219;47.410;9.730;2022-11-18T14:10:59;7.62;;;4.42;;
47481;SDS011;33219;47.410;9.730;2022-11-18T14:13:34;6.37;;;4.05;;
47481;SDS011;33219;47.410;9.730;2022-11-18T14:18:48;7.28;;;4.78;;
47481;SDS011;33219;47.410;9.730;2022-11-18T14:21:30;5.50;;;3.92;;
47481;SDS011;33219;47.410;9.730;2022-11-18T14:24:03;4.72;;;3.58;;
47481;SDS011;33219;47.410;9.730;2022-11-18T14:26:32;5.03;;;3.12;;
47481;SDS011;33219;47.410;9.730;2022-11-18T14:29:22;5.08;;;3.42;;
47481;SDS011;33219;47.410;9.730;2022-11-18T14:32:00;5.45;;;3.37;;
47481;SDS011;33219;47.410;9.730;2022-11-18T14:34:30;3.95;;;2.10;;
47481;SDS011;33219;47.410;9.730;2022-11-18T14:36:57;3.45;;;2.20;;
47481;SDS011;33219;47.410;9.730;2022-11-18T14:39:26;3.92;;;2.67;;
47481;SDS011;33219;47.410;9.730;2022-11-18T14:41:55;2.80;;;1.62;;
47481;SDS011;33219;47.410;9.730;2022-11-18T14:44:24;3.22;;;1.90;;
47481;SDS011;33219;47.410;9.730;2022-11-18T14:46:54;3.47;;;2.00;;
47481;SDS011;33219;47.410;9.730;2022-11-18T14:49:27;3.20;;;1.52;;
47481;SDS011;33219;47.410;9.730;2022-11-18T14:51:58;3.70;;;1.52;;
47481;SDS011;33219;47.410;9.730;2022-11-18T14:54:27;2.00;;;1.30;;
47481;SDS011;33219;47.410;9.730;2022-11-18T14:56:59;2.72;;;1.80;;
47481;SDS011;33219;47.410;9.730;2022-11-18T14:59:28;3.27;;;2.30;;
47481;SDS011;33219;47.410;9.730;2022-11-18T15:01:55;4.17;;;2.60;;
47481;SDS011;33219;47.410;9.730;2022-11-18T15:04:23;5.25;;;3.45;;
47481;SDS011;33219;47.410;9.730;2022-11-18T15:06:50;4.78;;;2.60;;
47481;SDS011;33219;47.410;9.730;2022-11-18T15:09:18;4.53;;;2.27;;
47481;SDS011;33219;47.410;9.730;2022-11-18T15:11:46;3.55;;;2.35;;
47481;SDS011;33219;47.410;9.730;2022-11-18T15:14:13;3.77;;;2.30;;
47481;SDS011;33219;47.410;9.730;2022-11-18T15:16:41;6.28;;;3.85;;
47481;SDS011;33219;47.410;9.730;2022-11-18T15:19:11;6.95;;;4.58;;
47481;SDS011;33219;47.410;9.730;2022-11-18T15:21:39;7.08;;;4.60;;
47481;SDS011;33219;47.410;9.730;2022-11-18T15:24:07;7.30;;;5.05;;
47481;SDS011;33219;47.410;9.730;2022-11-18T15:26:37;18.42;;;8.50;;
47481;SDS011;33219;47.410;9.730;2022-11-18T15:29:05;12.47;;;5.55;;
47481;SDS011;33219;47.410;9.730;2022-11-18T15:31:34;5.95;;;2.22;;
47481;SDS011;33219;47.410;9.730;2022-11-18T15:34:02;3.50;;;1.82;;
47481;SDS011;33219;47.410;9.730;2022-11-18T15:36:29;3.52;;;1.87;;
47481;SDS011;33219;47.410;9.730;2022-11-18T15:38:57;2.65;;;1.72;;
47481;SDS011;33219;47.410;9.730;2022-11-18T15:41:25;3.60;;;2.20;;
47481;SDS011;33219;47.410;9.730;2022-11-18T15:43:55;1.85;;;1.30;;
47481;SDS011;33219;47.410;9.730;2022-11-18T15:46:24;1.60;;;1.02;;
47481;SDS011;33219;47.410;9.730;2022-11-18T15:48:55;2.17;;;1.40;;
47481;SDS011;33219;47.410;9.730;2022-11-18T15:51:25;2.20;;;1.60;;
47481;SDS011;33219;47.410;9.730;2022-11-18T15:53:53;2.33;;;1.20;;
47481;SDS011;33219;47.410;9.730;2022-11-18T16:01:34;3.20;;;1.80;;
47481;SDS011;33219;47.410;9.730;2022-11-18T16:03:59;4.12;;;2.35;;
47481;SDS011;33219;47.410;9.730;2022-11-18T16:06:27;5.25;;;2.83;;
47481;SDS011;33219;47.410;9.730;2022-11-18T16:08:54;4.37;;;2.92;;
47481;SDS011;33219;47.410;9.730;2022-11-18T16:11:22;4.53;;;2.83;;
47481;SDS011;33219;47.410;9.730;2022-11-18T16:14:08;3.90;;;2.33;;
47481;SDS011;33219;47.410;9.730;2022-11-18T16:16:38;4.15;;;2.67;;
47481;SDS011;33219;47.410;9.730;2022-11-18T16:19:09;6.08;;;3.10;;
47481;SDS011;33219;47.410;9.730;2022-11-18T16:21:39;6.65;;;3.72;;
47481;SDS011;33219;47.410;9.730;2022-11-18T16:24:10;8.30;;;4.50;;
47481;SDS011;33219;47.410;9.730;2022-11-18T16:26:38;9.83;;;5.47;;
47481;SDS011;33219;47.410;9.730;2022-11-18T16:29:06;8.05;;;5.40;;
47481;SDS011;33219;47.410;9.730;2022-11-18T16:31:35;5.50;;;2.90;;
47481;SDS011;33219;47.410;9.730;2022-11-18T16:34:06;5.10;;;2.65;;
47481;SDS011;33219;47.410;9.730;2022-11-18T16:36:39;4.42;;;2.95;;
47481;SDS011;33219;47.410;9.730;2022-11-18T16:39:10;4.87;;;3.17;;
47481;SDS011;33219;47.410;9.730;2022-11-18T16:41:43;4.92;;;2.50;;
47481;SDS011;33219;47.410;9.730;2022-11-18T16:44:16;3.58;;;2.42;;
47481;SDS011;33219;47.410;9.730;2022-11-18T16:46:42;4.22;;;2.98;;
47481;SDS011;33219;47.410;9.730;2022-11-18T16:49:15;5.25;;;2.87;;
47481;SDS011;33219;47.410;9.730;2022-11-18T16:51:44;4.67;;;2.40;;
47481;SDS011;33219;47.410;9.730;2022-11-18T16:54:14;4.10;;;2.20;;
47481;SDS011;33219;47.410;9.730;2022-11-18T16:56:44;3.80;;;2.20;;
47481;SDS011;33219;47.410;9.730;2022-11-18T16:59:17;4.12;;;1.80;;
47481;SDS011;33219;47.410;9.730;2022-11-18T17:01:46;2.67;;;1.67;;
47481;SDS011;33219;47.410;9.730;2022-11-18T17:04:15;3.58;;;1.50;;
47481;SDS011;33219;47.410;9.730;2022-11-18T17:06:43;1.75;;;1.40;;
47481;SDS011;33219;47.410;9.730;2022-11-18T17:09:14;3.35;;;1.40;;
47481;SDS011;33219;47.410;9.730;2022-11-18T17:11:43;3.05;;;1.90;;
47481;SDS011;33219;47.410;9.730;2022-11-18T17:14:12;4.92;;;2.08;;
47481;SDS011;33219;47.410;9.730;2022-11-18T17:16:39;3.15;;;1.70;;
47481;SDS011;33219;47.410;9.730;2022-11-18T17:19:08;3.77;;;2.30;;
47481;SDS011;33219;47.410;9.730;2022-11-18T17:21:43;3.98;;;2.12;;
47481;SDS011;33219;47.410;9.730;2022-11-18T17:24:12;4.30;;;2.00;;
47481;SDS011;33219;47.410;9.730;2022-11-18T17:26:42;2.58;;;1.80;;
47481;SDS011;33219;47.410;9.730;2022-11-18T17:29:11;3.55;;;1.70;;
47481;SDS011;33219;47.410;9.730;2022-11-18T17:31:39;2.85;;;1.90;;
47481;SDS011;33219;47.410;9.730;2022-11-18T17:34:09;2.45;;;1.75;;
47481;SDS011;33219;47.410;9.730;2022-11-18T17:36:37;3.65;;;1.75;;
47481;SDS011;33219;47.410;9.730;2022-11-18T17:39:07;2.75;;;1.75;;
47481;SDS011;33219;47.410;9.730;2022-11-18T17:41:35;4.65;;;2.40;;
47481;SDS011;33219;47.410;9.730;2022-11-18T17:44:15;3.95;;;2.00;;
47481;SDS011;33219;47.410;9.730;2022-11-18T17:46:43;5.85;;;3.12;;
47481;SDS011;33219;47.410;9.730;2022-11-18T17:49:14;3.75;;;2.35;;
47481;SDS011;33219;47.410;9.730;2022-11-18T17:51:43;3.98;;;2.27;;
47481;SDS011;33219;47.410;9.730;2022-11-18T17:54:15;4.08;;;2.05;;
47481;SDS011;33219;47.410;9.730;2022-11-18T17:56:43;2.80;;;1.60;;
47481;SDS011;33219;47.410;9.730;2022-11-18T17:59:12;3.52;;;1.57;;
47481;SDS011;33219;47.410;9.730;2022-11-18T18:01:41;2.75;;;1.60;;
47481;SDS011;33219;47.410;9.730;2022-11-18T18:04:12;4.03;;;1.67;;
47481;SDS011;33219;47.410;9.730;2022-11-18T18:06:42;2.92;;;1.60;;
47481;SDS011;33219;47.410;9.730;2022-11-18T18:09:10;2.50;;;1.70;;
47481;SDS011;33219;47.410;9.730;2022-11-18T18:11:37;6.12;;;3.60;;
47481;SDS011;33219;47.410;9.730;2022-11-18T18:14:05;5.20;;;2.80;;
47481;SDS011;33219;47.410;9.730;2022-11-18T18:16:43;4.87;;;2.35;;
47481;SDS011;33219;47.410;9.730;2022-11-18T18:19:20;4.35;;;1.67;;
47481;SDS011;33219;47.410;9.730;2022-11-18T18:21:48;4.35;;;1.70;;
47481;SDS011;33219;47.410;9.730;2022-11-18T18:24:18;3.72;;;2.05;;
47481;SDS011;33219;47.410;9.730;2022-11-18T18:26:45;4.45;;;2.00;;
47481;SDS011;33219;47.410;9.730;2022-11-18T18:29:14;3.33;;;2.02;;
47481;SDS011;33219;47.410;9.730;2022-11-18T18:31:43;4.65;;;2.40;;
47481;SDS011;33219;47.410;9.730;2022-11-18T18:34:11;3.35;;;2.10;;
47481;SDS011;33219;47.410;9.730;2022-11-18T18:36:39;3.98;;;2.02;;